sensor_id;sensor_type;location;lat;lon;timestamp;temperature;humidity
19007;DHT22;9636;47.382;8.480;2024-01-07T00:00:29;4.70;99.90
19007;DHT22;9636;47.382;8.480;2024-01-07T00:02:56;4.70;99.90
19007;DHT22;9636;47.382;8.480;2024-01-07T00:05:24;4.90;99.90
19007;DHT22;9636;47.382;8.480;2024-01-07T00:07:51;4.80;99.90
19007;DHT22;9636;47.382;8.480;2024-01-07T00:10:17;4.70;99.90
19007;DHT22;9636;47.382;8.480;2024-01-07T00:12:44;4.90;99.90
19007;DHT22;9636;47.382;8.480;2024-01-07T00:15:10;4.90;99.90
19007;DHT22;9636;47.382;8.480;2024-01-07T00:17:37;4.90;99.90
19007;DHT22;9636;47.382;8.480;2024-01-07T00:20:04;4.90;99.90
19007;DHT22;9636;47.382;8.480;2024-01-07T00:22:32;4.90;99.90
19007;DHT22;9636;47.382;8.480;2024-01-07T00:24:59;5.00;99.90
19007;DHT22;9636;47.382;8.480;2024-01-07T00:27:26;5.10;99.90
19007;DHT22;9636;47.382;8.480;2024-01-07T00:29:51;4.90;99.90
19007;DHT22;9636;47.382;8.480;2024-01-07T00:32:18;4.90;99.90
19007;DHT22;9636;47.382;8.480;2024-01-07T00:34:45;4.90;99.90
19007;DHT22;9636;47.382;8.480;2024-01-07T00:37:11;4.90;99.90
19007;DHT22;9636;47.382;8.480;2024-01-07T00:39:39;5.10;99.90
19007;DHT22;9636;47.382;8.480;2024-01-07T00:42:07;5.20;99.90
19007;DHT22;9636;47.382;8.480;2024-01-07T00:44:34;5.10;99.90
19007;DHT22;9636;47.382;8.480;2024-01-07T00:47:00;5.10;99.90
19007;DHT22;9636;47.382;8.480;2024-01-07T00:49:27;5.00;99.90
19007;DHT22;9636;47.382;8.480;2024-01-07T00:51:54;4.90;99.90
19007;DHT22;9636;47.382;8.480;2024-01-07T00:54:20;4.80;99.90
19007;DHT22;9636;47.382;8.480;2024-01-07T00:56:48;4.80;99.90
19007;DHT22;9636;47.382;8.480;2024-01-07T00:59:15;4.90;99.90
19007;DHT22;9636;47.382;8.480;2024-01-07T01:01:42;4.80;99.90
19007;DHT22;9636;47.382;8.480;2024-01-07T01:04:08;4.90;99.90
19007;DHT22;9636;47.382;8.480;2024-01-07T01:06:35;4.80;99.90
19007;DHT22;9636;47.382;8.480;2024-01-07T01:09:01;4.70;99.90
19007;DHT22;9636;47.382;8.480;2024-01-07T01:11:28;4.80;99.90
19007;DHT22;9636;47.382;8.480;2024-01-07T01:13:56;4.80;99.90
19007;DHT22;9636;47.382;8.480;2024-01-07T01:16:23;4.80;99.90
19007;DHT22;9636;47.382;8.480;2024-01-07T01:18:49;4.90;99.90
19007;DHT22;9636;47.382;8.480;2024-01-07T01:21:16;4.90;99.90
19007;DHT22;9636;47.382;8.480;2024-01-07T01:23:43;4.90;99.90
19007;DHT22;9636;47.382;8.480;2024-01-07T01:26:10;4.90;99.90
19007;DHT22;9636;47.382;8.480;2024-01-07T01:28:37;5.00;99.90
19007;DHT22;9636;47.382;8.480;2024-01-07T01:31:05;4.90;99.90
19007;DHT22;9636;47.382;8.480;2024-01-07T01:33:31;4.90;99.90
19007;DHT22;9636;47.382;8.480;2024-01-07T01:35:58;4.80;99.90
19007;DHT22;9636;47.382;8.480;2024-01-07T01:38:25;4.80;99.90
19007;DHT22;9636;47.382;8.480;2024-01-07T01:40:52;4.80;99.90
19007;DHT22;9636;47.382;8.480;2024-01-07T01:43:22;4.80;99.90
19007;DHT22;9636;47.382;8.480;2024-01-07T01:45:48;4.80;99.90
19007;DHT22;9636;47.382;8.480;2024-01-07T01:48:16;4.80;99.90
19007;DHT22;9636;47.382;8.480;2024-01-07T01:50:43;4.80;99.90
19007;DHT22;9636;47.382;8.480;2024-01-07T01:53:10;4.80;99.90
19007;DHT22;9636;47.382;8.480;2024-01-07T01:55:37;4.80;99.90
19007;DHT22;9636;47.382;8.480;2024-01-07T01:58:03;4.90;99.90
19007;DHT22;9636;47.382;8.480;2024-01-07T02:00:30;4.90;99.90
19007;DHT22;9636;47.382;8.480;2024-01-07T02:02:57;4.90;99.90
19007;DHT22;9636;47.382;8.480;2024-01-07T02:05:27;5.10;99.90
19007;DHT22;9636;47.382;8.480;2024-01-07T02:07:54;5.10;99.90
19007;DHT22;9636;47.382;8.480;2024-01-07T02:10:21;5.00;99.90
19007;DHT22;9636;47.382;8.480;2024-01-07T02:12:48;4.90;99.90
19007;DHT22;9636;47.382;8.480;2024-01-07T02:15:15;4.90;99.90
19007;DHT22;9636;47.382;8.480;2024-01-07T02:17:41;4.80;99.90
19007;DHT22;9636;47.382;8.480;2024-01-07T02:20:08;4.80;99.90
19007;DHT22;9636;47.382;8.480;2024-01-07T02:22:36;4.70;99.90
19007;DHT22;9636;47.382;8.480;2024-01-07T02:25:05;4.80;99.90
19007;DHT22;9636;47.382;8.480;2024-01-07T02:27:32;4.90;99.90
19007;DHT22;9636;47.382;8.480;2024-01-07T02:29:58;5.00;99.90
19007;DHT22;9636;47.382;8.480;2024-01-07T02:32:25;5.10;99.90
19007;DHT22;9636;47.382;8.480;2024-01-07T02:34:52;5.20;99.90
19007;DHT22;9636;47.382;8.480;2024-01-07T02:37:19;5.00;99.90
19007;DHT22;9636;47.382;8.480;2024-01-07T02:39:45;4.90;99.90
19007;DHT22;9636;47.382;8.480;2024-01-07T02:42:13;4.80;99.90
19007;DHT22;9636;47.382;8.480;2024-01-07T02:44:40;4.80;99.90
19007;DHT22;9636;47.382;8.480;2024-01-07T02:47:06;4.70;99.90
19007;DHT22;9636;47.382;8.480;2024-01-07T02:49:33;4.70;99.90
19007;DHT22;9636;47.382;8.480;2024-01-07T02:51:59;4.80;99.90
19007;DHT22;9636;47.382;8.480;2024-01-07T02:54:26;4.60;99.90
19007;DHT22;9636;47.382;8.480;2024-01-07T02:56:53;4.70;99.90
19007;DHT22;9636;47.382;8.480;2024-01-07T02:59:21;4.70;99.90
19007;DHT22;9636;47.382;8.480;2024-01-07T03:01:47;4.70;99.90
19007;DHT22;9636;47.382;8.480;2024-01-07T03:04:15;4.90;99.90
19007;DHT22;9636;47.382;8.480;2024-01-07T03:06:42;5.00;99.90
19007;DHT22;9636;47.382;8.480;2024-01-07T03:09:08;5.00;99.90
19007;DHT22;9636;47.382;8.480;2024-01-07T03:11:38;5.10;99.90
19007;DHT22;9636;47.382;8.480;2024-01-07T03:14:05;5.00;99.90
19007;DHT22;9636;47.382;8.480;2024-01-07T03:16:33;4.90;99.90
19007;DHT22;9636;47.382;8.480;2024-01-07T03:18:59;4.90;99.90
19007;DHT22;9636;47.382;8.480;2024-01-07T03:21:27;4.90;99.90
19007;DHT22;9636;47.382;8.480;2024-01-07T03:23:54;4.80;99.90
19007;DHT22;9636;47.382;8.480;2024-01-07T03:26:20;4.90;99.90
19007;DHT22;9636;47.382;8.480;2024-01-07T03:28:47;4.90;99.90
19007;DHT22;9636;47.382;8.480;2024-01-07T03:31:14;5.00;99.90
19007;DHT22;9636;47.382;8.480;2024-01-07T03:33:42;5.00;99.90
19007;DHT22;9636;47.382;8.480;2024-01-07T03:36:09;4.90;99.90
19007;DHT22;9636;47.382;8.480;2024-01-07T03:38:36;5.00;99.90
19007;DHT22;9636;47.382;8.480;2024-01-07T03:41:03;5.10;99.90
19007;DHT22;9636;47.382;8.480;2024-01-07T03:43:30;5.10;99.90
19007;DHT22;9636;47.382;8.480;2024-01-07T03:45:56;5.10;99.90
19007;DHT22;9636;47.382;8.480;2024-01-07T03:48:23;5.00;99.90
19007;DHT22;9636;47.382;8.480;2024-01-07T03:50:51;4.90;99.90
19007;DHT22;9636;47.382;8.480;2024-01-07T03:53:18;4.90;99.90
19007;DHT22;9636;47.382;8.480;2024-01-07T03:55:44;4.80;99.90
19007;DHT22;9636;47.382;8.480;2024-01-07T03:58:11;4.70;99.90
19007;DHT22;9636;47.382;8.480;2024-01-07T04:00:38;4.70;99.90
19007;DHT22;9636;47.382;8.480;2024-01-07T04:03:05;4.70;99.90
19007;DHT22;9636;47.382;8.480;2024-01-07T04:05:31;4.60;99.90
19007;DHT22;9636;47.382;8.480;2024-01-07T04:08:00;4.70;99.90
19007;DHT22;9636;47.382;8.480;2024-01-07T04:10:27;4.70;99.90
19007;DHT22;9636;47.382;8.480;2024-01-07T04:12:54;4.70;99.90
19007;DHT22;9636;47.382;8.480;2024-01-07T04:15:20;4.90;99.90
19007;DHT22;9636;47.382;8.480;2024-01-07T04:17:47;4.80;99.90
19007;DHT22;9636;47.382;8.480;2024-01-07T04:20:14;4.80;99.90
19007;DHT22;9636;47.382;8.480;2024-01-07T04:22:40;4.80;99.90
19007;DHT22;9636;47.382;8.480;2024-01-07T04:25:08;5.20;99.90
19007;DHT22;9636;47.382;8.480;2024-01-07T04:27:36;4.90;99.90
19007;DHT22;9636;47.382;8.480;2024-01-07T04:30:03;4.80;99.90
19007;DHT22;9636;47.382;8.480;2024-01-07T04:32:30;4.70;99.90
19007;DHT22;9636;47.382;8.480;2024-01-07T04:34:56;4.60;99.90
19007;DHT22;9636;47.382;8.480;2024-01-07T04:37:23;4.60;99.90
19007;DHT22;9636;47.382;8.480;2024-01-07T04:39:50;4.60;99.90
19007;DHT22;9636;47.382;8.480;2024-01-07T04:42:18;4.60;99.90
19007;DHT22;9636;47.382;8.480;2024-01-07T04:44:44;4.60;99.90
19007;DHT22;9636;47.382;8.480;2024-01-07T04:47:25;4.80;99.90
19007;DHT22;9636;47.382;8.480;2024-01-07T04:49:52;4.80;99.90
19007;DHT22;9636;47.382;8.480;2024-01-07T04:52:18;4.80;99.90
19007;DHT22;9636;47.382;8.480;2024-01-07T04:54:45;4.70;99.90
19007;DHT22;9636;47.382;8.480;2024-01-07T04:57:12;4.60;99.90
19007;DHT22;9636;47.382;8.480;2024-01-07T04:59:40;4.80;99.90
19007;DHT22;9636;47.382;8.480;2024-01-07T05:02:06;4.90;99.90
19007;DHT22;9636;47.382;8.480;2024-01-07T05:04:33;5.00;99.90
19007;DHT22;9636;47.382;8.480;2024-01-07T05:06:59;5.00;99.90
19007;DHT22;9636;47.382;8.480;2024-01-07T05:09:26;4.90;99.90
19007;DHT22;9636;47.382;8.480;2024-01-07T05:11:53;5.00;99.90
19007;DHT22;9636;47.382;8.480;2024-01-07T05:14:19;4.90;99.90
19007;DHT22;9636;47.382;8.480;2024-01-07T05:16:49;5.00;99.90
19007;DHT22;9636;47.382;8.480;2024-01-07T05:19:16;5.00;99.90
19007;DHT22;9636;47.382;8.480;2024-01-07T05:21:42;4.80;99.90
19007;DHT22;9636;47.382;8.480;2024-01-07T05:24:09;4.70;99.90
19007;DHT22;9636;47.382;8.480;2024-01-07T05:26:37;4.90;99.90
19007;DHT22;9636;47.382;8.480;2024-01-07T05:29:05;4.60;99.90
19007;DHT22;9636;47.382;8.480;2024-01-07T05:31:31;4.60;99.90
19007;DHT22;9636;47.382;8.480;2024-01-07T05:33:59;4.60;99.90
19007;DHT22;9636;47.382;8.480;2024-01-07T05:36:26;4.60;99.90
19007;DHT22;9636;47.382;8.480;2024-01-07T05:38:52;4.70;99.90
19007;DHT22;9636;47.382;8.480;2024-01-07T05:41:19;4.60;99.90
19007;DHT22;9636;47.382;8.480;2024-01-07T05:43:46;4.50;99.90
19007;DHT22;9636;47.382;8.480;2024-01-07T05:46:12;4.50;99.90
19007;DHT22;9636;47.382;8.480;2024-01-07T05:48:42;4.60;99.90
19007;DHT22;9636;47.382;8.480;2024-01-07T05:51:11;4.60;99.90
19007;DHT22;9636;47.382;8.480;2024-01-07T05:53:38;4.60;99.90
19007;DHT22;9636;47.382;8.480;2024-01-07T05:56:05;4.70;99.90
19007;DHT22;9636;47.382;8.480;2024-01-07T05:58:32;4.60;99.90
19007;DHT22;9636;47.382;8.480;2024-01-07T06:00:58;4.80;99.90
19007;DHT22;9636;47.382;8.480;2024-01-07T06:03:25;4.90;99.90
19007;DHT22;9636;47.382;8.480;2024-01-07T06:05:52;4.80;99.90
19007;DHT22;9636;47.382;8.480;2024-01-07T06:08:20;5.00;99.90
19007;DHT22;9636;47.382;8.480;2024-01-07T06:10:46;5.00;99.90
19007;DHT22;9636;47.382;8.480;2024-01-07T06:13:13;4.70;99.90
19007;DHT22;9636;47.382;8.480;2024-01-07T06:15:40;4.70;99.90
19007;DHT22;9636;47.382;8.480;2024-01-07T06:18:06;4.60;99.90
19007;DHT22;9636;47.382;8.480;2024-01-07T06:20:33;4.50;99.90
19007;DHT22;9636;47.382;8.480;2024-01-07T06:23:00;4.40;99.90
19007;DHT22;9636;47.382;8.480;2024-01-07T06:25:27;4.50;99.90
19007;DHT22;9636;47.382;8.480;2024-01-07T06:27:55;4.40;99.90
19007;DHT22;9636;47.382;8.480;2024-01-07T06:30:21;4.40;99.90
19007;DHT22;9636;47.382;8.480;2024-01-07T06:32:48;4.50;99.90
19007;DHT22;9636;47.382;8.480;2024-01-07T06:35:15;4.50;99.90
19007;DHT22;9636;47.382;8.480;2024-01-07T06:37:41;4.30;99.90
19007;DHT22;9636;47.382;8.480;2024-01-07T06:40:09;4.40;99.90
19007;DHT22;9636;47.382;8.480;2024-01-07T06:42:38;4.40;99.90
19007;DHT22;9636;47.382;8.480;2024-01-07T06:45:05;4.50;99.90
19007;DHT22;9636;47.382;8.480;2024-01-07T06:47:31;4.30;99.90
19007;DHT22;9636;47.382;8.480;2024-01-07T06:49:58;4.40;99.90
19007;DHT22;9636;47.382;8.480;2024-01-07T06:52:25;4.60;99.90
19007;DHT22;9636;47.382;8.480;2024-01-07T06:54:51;4.50;99.90
19007;DHT22;9636;47.382;8.480;2024-01-07T06:57:18;4.70;99.90
19007;DHT22;9636;47.382;8.480;2024-01-07T06:59:46;4.60;99.90
19007;DHT22;9636;47.382;8.480;2024-01-07T07:02:12;4.50;99.90
19007;DHT22;9636;47.382;8.480;2024-01-07T07:04:39;4.40;99.90
19007;DHT22;9636;47.382;8.480;2024-01-07T07:07:06;4.20;99.90
19007;DHT22;9636;47.382;8.480;2024-01-07T07:09:32;4.20;99.90
19007;DHT22;9636;47.382;8.480;2024-01-07T07:11:59;4.20;99.90
19007;DHT22;9636;47.382;8.480;2024-01-07T07:14:26;4.20;99.90
19007;DHT22;9636;47.382;8.480;2024-01-07T07:16:54;4.10;99.90
19007;DHT22;9636;47.382;8.480;2024-01-07T07:19:21;4.10;99.90
19007;DHT22;9636;47.382;8.480;2024-01-07T07:21:48;4.20;99.90
19007;DHT22;9636;47.382;8.480;2024-01-07T07:24:14;4.20;99.90
19007;DHT22;9636;47.382;8.480;2024-01-07T07:26:41;4.40;99.90
19007;DHT22;9636;47.382;8.480;2024-01-07T07:29:07;4.60;99.90
19007;DHT22;9636;47.382;8.480;2024-01-07T07:31:35;4.50;99.90
19007;DHT22;9636;47.382;8.480;2024-01-07T07:34:04;4.70;99.90
19007;DHT22;9636;47.382;8.480;2024-01-07T07:36:31;4.50;99.90
19007;DHT22;9636;47.382;8.480;2024-01-07T07:38:57;4.60;99.90
19007;DHT22;9636;47.382;8.480;2024-01-07T07:41:24;4.60;99.90
19007;DHT22;9636;47.382;8.480;2024-01-07T07:43:50;4.60;99.90
19007;DHT22;9636;47.382;8.480;2024-01-07T07:46:17;4.80;99.90
19007;DHT22;9636;47.382;8.480;2024-01-07T07:48:44;4.90;99.90
19007;DHT22;9636;47.382;8.480;2024-01-07T07:51:12;4.80;99.90
19007;DHT22;9636;47.382;8.480;2024-01-07T07:53:38;4.90;99.90
19007;DHT22;9636;47.382;8.480;2024-01-07T07:56:05;4.70;99.90
19007;DHT22;9636;47.382;8.480;2024-01-07T07:58:33;4.50;99.90
19007;DHT22;9636;47.382;8.480;2024-01-07T08:01:00;4.30;99.90
19007;DHT22;9636;47.382;8.480;2024-01-07T08:03:27;4.50;99.90
19007;DHT22;9636;47.382;8.480;2024-01-07T08:05:54;4.70;99.90
19007;DHT22;9636;47.382;8.480;2024-01-07T08:08:21;4.60;99.90
19007;DHT22;9636;47.382;8.480;2024-01-07T08:10:48;4.50;99.90
19007;DHT22;9636;47.382;8.480;2024-01-07T08:13:15;4.40;99.90
19007;DHT22;9636;47.382;8.480;2024-01-07T08:15:42;4.50;99.90
19007;DHT22;9636;47.382;8.480;2024-01-07T08:18:08;4.40;99.90
19007;DHT22;9636;47.382;8.480;2024-01-07T08:20:35;4.50;99.90
19007;DHT22;9636;47.382;8.480;2024-01-07T08:23:01;4.80;99.90
19007;DHT22;9636;47.382;8.480;2024-01-07T08:25:29;4.70;99.90
19007;DHT22;9636;47.382;8.480;2024-01-07T08:27:57;4.60;99.90
19007;DHT22;9636;47.382;8.480;2024-01-07T08:30:24;4.40;99.90
19007;DHT22;9636;47.382;8.480;2024-01-07T08:32:50;4.50;99.90
19007;DHT22;9636;47.382;8.480;2024-01-07T08:35:17;4.40;99.90
19007;DHT22;9636;47.382;8.480;2024-01-07T08:37:44;4.40;99.90
19007;DHT22;9636;47.382;8.480;2024-01-07T08:40:11;4.40;99.90
19007;DHT22;9636;47.382;8.480;2024-01-07T08:42:40;4.40;99.90
19007;DHT22;9636;47.382;8.480;2024-01-07T08:45:07;4.40;99.90
19007;DHT22;9636;47.382;8.480;2024-01-07T08:47:34;4.50;99.90
19007;DHT22;9636;47.382;8.480;2024-01-07T08:50:01;4.60;99.90
19007;DHT22;9636;47.382;8.480;2024-01-07T08:52:28;4.60;99.90
19007;DHT22;9636;47.382;8.480;2024-01-07T08:54:55;4.60;99.90
19007;DHT22;9636;47.382;8.480;2024-01-07T08:57:21;4.60;99.90
19007;DHT22;9636;47.382;8.480;2024-01-07T08:59:50;4.60;99.90
19007;DHT22;9636;47.382;8.480;2024-01-07T09:02:17;4.60;99.90
19007;DHT22;9636;47.382;8.480;2024-01-07T09:04:44;4.60;99.90
19007;DHT22;9636;47.382;8.480;2024-01-07T09:07:11;4.60;99.90
19007;DHT22;9636;47.382;8.480;2024-01-07T09:09:37;4.80;99.90
19007;DHT22;9636;47.382;8.480;2024-01-07T09:12:04;4.70;99.90
19007;DHT22;9636;47.382;8.480;2024-01-07T09:14:31;4.90;99.90
19007;DHT22;9636;47.382;8.480;2024-01-07T09:16:59;5.00;99.90
19007;DHT22;9636;47.382;8.480;2024-01-07T09:19:26;4.90;99.90
19007;DHT22;9636;47.382;8.480;2024-01-07T09:21:52;4.80;99.90
19007;DHT22;9636;47.382;8.480;2024-01-07T09:24:19;4.70;99.90
19007;DHT22;9636;47.382;8.480;2024-01-07T09:26:46;4.70;99.90
19007;DHT22;9636;47.382;8.480;2024-01-07T09:29:12;4.80;99.90
19007;DHT22;9636;47.382;8.480;2024-01-07T09:31:39;4.80;99.90
19007;DHT22;9636;47.382;8.480;2024-01-07T09:34:07;4.80;99.90
19007;DHT22;9636;47.382;8.480;2024-01-07T09:36:34;4.90;99.90
19007;DHT22;9636;47.382;8.480;2024-01-07T09:39:01;5.00;99.90
19007;DHT22;9636;47.382;8.480;2024-01-07T09:41:30;4.90;99.90
19007;DHT22;9636;47.382;8.480;2024-01-07T09:43:57;5.00;99.90
19007;DHT22;9636;47.382;8.480;2024-01-07T09:46:24;5.10;99.90
19007;DHT22;9636;47.382;8.480;2024-01-07T09:48:51;5.00;99.90
19007;DHT22;9636;47.382;8.480;2024-01-07T09:51:20;4.90;99.90
19007;DHT22;9636;47.382;8.480;2024-01-07T09:53:48;4.80;99.90
19007;DHT22;9636;47.382;8.480;2024-01-07T09:56:16;4.90;99.90
19007;DHT22;9636;47.382;8.480;2024-01-07T09:58:45;5.00;99.90
19007;DHT22;9636;47.382;8.480;2024-01-07T10:01:15;4.90;99.90
19007;DHT22;9636;47.382;8.480;2024-01-07T10:03:41;5.00;99.90
19007;DHT22;9636;47.382;8.480;2024-01-07T10:06:08;4.90;99.90
19007;DHT22;9636;47.382;8.480;2024-01-07T10:08:38;4.90;99.90
19007;DHT22;9636;47.382;8.480;2024-01-07T10:11:04;5.00;99.90
19007;DHT22;9636;47.382;8.480;2024-01-07T10:13:31;5.00;99.90
19007;DHT22;9636;47.382;8.480;2024-01-07T10:15:58;5.00;99.90
19007;DHT22;9636;47.382;8.480;2024-01-07T10:18:25;5.10;99.90
19007;DHT22;9636;47.382;8.480;2024-01-07T10:20:51;5.10;99.90
19007;DHT22;9636;47.382;8.480;2024-01-07T10:23:19;5.10;99.90
19007;DHT22;9636;47.382;8.480;2024-01-07T10:25:47;5.10;99.90
19007;DHT22;9636;47.382;8.480;2024-01-07T10:28:14;5.00;99.90
19007;DHT22;9636;47.382;8.480;2024-01-07T10:30:40;5.00;99.90
19007;DHT22;9636;47.382;8.480;2024-01-07T10:33:07;5.10;99.90
19007;DHT22;9636;47.382;8.480;2024-01-07T10:35:34;5.10;99.90
19007;DHT22;9636;47.382;8.480;2024-01-07T10:38:01;5.00;99.90
19007;DHT22;9636;47.382;8.480;2024-01-07T10:40:28;5.10;99.90
19007;DHT22;9636;47.382;8.480;2024-01-07T10:42:56;5.10;99.90
19007;DHT22;9636;47.382;8.480;2024-01-07T10:45:24;5.10;99.90
19007;DHT22;9636;47.382;8.480;2024-01-07T10:47:54;5.20;99.90
19007;DHT22;9636;47.382;8.480;2024-01-07T10:50:21;5.30;99.90
19007;DHT22;9636;47.382;8.480;2024-01-07T10:52:49;5.30;99.90
19007;DHT22;9636;47.382;8.480;2024-01-07T10:55:17;5.20;99.90
19007;DHT22;9636;47.382;8.480;2024-01-07T10:57:44;5.10;99.90
19007;DHT22;9636;47.382;8.480;2024-01-07T11:00:14;5.10;99.90
19007;DHT22;9636;47.382;8.480;2024-01-07T11:02:49;4.90;99.90
19007;DHT22;9636;47.382;8.480;2024-01-07T11:05:20;5.10;99.90
19007;DHT22;9636;47.382;8.480;2024-01-07T11:07:53;5.10;99.90
19007;DHT22;9636;47.382;8.480;2024-01-07T11:10:22;5.20;99.90
19007;DHT22;9636;47.382;8.480;2024-01-07T11:12:53;5.10;99.90
19007;DHT22;9636;47.382;8.480;2024-01-07T11:18:02;5.10;99.90
19007;DHT22;9636;47.382;8.480;2024-01-07T11:20:29;5.10;99.90
19007;DHT22;9636;47.382;8.480;2024-01-07T11:25:38;5.10;99.90
19007;DHT22;9636;47.382;8.480;2024-01-07T11:28:06;5.20;99.90
19007;DHT22;9636;47.382;8.480;2024-01-07T11:30:37;5.20;99.90
19007;DHT22;9636;47.382;8.480;2024-01-07T11:33:06;5.20;99.90
19007;DHT22;9636;47.382;8.480;2024-01-07T11:38:17;5.00;99.90
19007;DHT22;9636;47.382;8.480;2024-01-07T11:40:44;5.10;99.90
19007;DHT22;9636;47.382;8.480;2024-01-07T11:43:11;5.20;99.90
19007;DHT22;9636;47.382;8.480;2024-01-07T11:45:38;5.30;99.90
19007;DHT22;9636;47.382;8.480;2024-01-07T11:48:06;5.20;99.90
19007;DHT22;9636;47.382;8.480;2024-01-07T11:50:34;5.20;99.90
19007;DHT22;9636;47.382;8.480;2024-01-07T11:53:01;5.20;99.90
19007;DHT22;9636;47.382;8.480;2024-01-07T11:55:28;5.20;99.90
19007;DHT22;9636;47.382;8.480;2024-01-07T11:57:58;5.20;99.90
19007;DHT22;9636;47.382;8.480;2024-01-07T12:00:27;5.10;99.90
19007;DHT22;9636;47.382;8.480;2024-01-07T12:02:54;5.00;99.90
19007;DHT22;9636;47.382;8.480;2024-01-07T12:05:22;5.10;99.90
19007;DHT22;9636;47.382;8.480;2024-01-07T12:07:48;5.10;99.90
19007;DHT22;9636;47.382;8.480;2024-01-07T12:10:15;5.30;99.90
19007;DHT22;9636;47.382;8.480;2024-01-07T12:12:43;5.20;99.90
19007;DHT22;9636;47.382;8.480;2024-01-07T12:15:10;5.30;99.90
19007;DHT22;9636;47.382;8.480;2024-01-07T12:17:37;5.30;99.90
19007;DHT22;9636;47.382;8.480;2024-01-07T12:20:04;5.30;99.90
19007;DHT22;9636;47.382;8.480;2024-01-07T12:22:36;5.30;99.90
19007;DHT22;9636;47.382;8.480;2024-01-07T12:25:04;5.30;99.90
19007;DHT22;9636;47.382;8.480;2024-01-07T12:27:31;5.30;99.90
19007;DHT22;9636;47.382;8.480;2024-01-07T12:29:58;5.40;99.90
19007;DHT22;9636;47.382;8.480;2024-01-07T12:32:26;5.40;99.90
19007;DHT22;9636;47.382;8.480;2024-01-07T12:34:52;5.40;99.90
19007;DHT22;9636;47.382;8.480;2024-01-07T12:37:19;5.20;99.90
19007;DHT22;9636;47.382;8.480;2024-01-07T12:39:47;5.00;99.90
19007;DHT22;9636;47.382;8.480;2024-01-07T12:42:15;5.20;99.90
19007;DHT22;9636;47.382;8.480;2024-01-07T12:44:41;5.00;99.90
19007;DHT22;9636;47.382;8.480;2024-01-07T12:47:08;5.10;99.90
19007;DHT22;9636;47.382;8.480;2024-01-07T12:49:35;5.00;99.90
19007;DHT22;9636;47.382;8.480;2024-01-07T12:52:01;5.10;99.90
19007;DHT22;9636;47.382;8.480;2024-01-07T12:54:28;5.20;99.90
19007;DHT22;9636;47.382;8.480;2024-01-07T12:56:56;5.20;99.90
19007;DHT22;9636;47.382;8.480;2024-01-07T12:59:23;5.40;99.90
19007;DHT22;9636;47.382;8.480;2024-01-07T13:01:49;5.20;99.90
19007;DHT22;9636;47.382;8.480;2024-01-07T13:04:16;5.20;99.90
19007;DHT22;9636;47.382;8.480;2024-01-07T13:06:44;5.30;99.90
19007;DHT22;9636;47.382;8.480;2024-01-07T13:09:11;5.40;99.90
19007;DHT22;9636;47.382;8.480;2024-01-07T13:11:38;5.20;99.90
19007;DHT22;9636;47.382;8.480;2024-01-07T13:14:06;5.20;99.90
19007;DHT22;9636;47.382;8.480;2024-01-07T13:16:33;5.00;99.90
19007;DHT22;9636;47.382;8.480;2024-01-07T13:19:00;5.10;99.90
19007;DHT22;9636;47.382;8.480;2024-01-07T13:21:28;5.10;99.90
19007;DHT22;9636;47.382;8.480;2024-01-07T13:23:55;5.00;99.90
19007;DHT22;9636;47.382;8.480;2024-01-07T13:26:25;5.00;99.90
19007;DHT22;9636;47.382;8.480;2024-01-07T13:28:51;5.20;99.90
19007;DHT22;9636;47.382;8.480;2024-01-07T13:31:20;5.10;99.90
19007;DHT22;9636;47.382;8.480;2024-01-07T13:33:46;5.10;99.90
19007;DHT22;9636;47.382;8.480;2024-01-07T13:36:13;5.20;99.90
19007;DHT22;9636;47.382;8.480;2024-01-07T13:38:39;5.30;99.90
19007;DHT22;9636;47.382;8.480;2024-01-07T13:41:07;5.10;99.90
19007;DHT22;9636;47.382;8.480;2024-01-07T13:43:34;4.90;99.90
19007;DHT22;9636;47.382;8.480;2024-01-07T13:46:02;4.80;99.90
19007;DHT22;9636;47.382;8.480;2024-01-07T13:48:30;4.90;99.90
19007;DHT22;9636;47.382;8.480;2024-01-07T13:50:57;4.80;99.90
19007;DHT22;9636;47.382;8.480;2024-01-07T13:53:24;4.70;99.90
19007;DHT22;9636;47.382;8.480;2024-01-07T13:55:51;4.70;99.90
19007;DHT22;9636;47.382;8.480;2024-01-07T13:58:17;4.80;99.90
19007;DHT22;9636;47.382;8.480;2024-01-07T14:00:45;4.80;99.90
19007;DHT22;9636;47.382;8.480;2024-01-07T14:03:12;4.60;99.90
19007;DHT22;9636;47.382;8.480;2024-01-07T14:05:39;4.40;99.90
19007;DHT22;9636;47.382;8.480;2024-01-07T14:08:06;4.60;99.90
19007;DHT22;9636;47.382;8.480;2024-01-07T14:10:33;4.60;99.90
19007;DHT22;9636;47.382;8.480;2024-01-07T14:12:59;4.50;99.90
19007;DHT22;9636;47.382;8.480;2024-01-07T14:15:26;4.70;99.90
19007;DHT22;9636;47.382;8.480;2024-01-07T14:17:53;4.60;99.90
19007;DHT22;9636;47.382;8.480;2024-01-07T14:20:20;4.50;99.90
19007;DHT22;9636;47.382;8.480;2024-01-07T14:22:48;4.50;99.90
19007;DHT22;9636;47.382;8.480;2024-01-07T14:25:15;4.60;99.90
19007;DHT22;9636;47.382;8.480;2024-01-07T14:27:42;4.70;99.90
19007;DHT22;9636;47.382;8.480;2024-01-07T14:30:09;4.60;99.90
19007;DHT22;9636;47.382;8.480;2024-01-07T14:32:36;4.70;99.90
19007;DHT22;9636;47.382;8.480;2024-01-07T14:35:02;4.60;99.90
19007;DHT22;9636;47.382;8.480;2024-01-07T14:37:29;4.50;99.90
19007;DHT22;9636;47.382;8.480;2024-01-07T14:39:57;4.40;99.90
19007;DHT22;9636;47.382;8.480;2024-01-07T14:42:24;4.40;99.90
19007;DHT22;9636;47.382;8.480;2024-01-07T14:44:50;4.30;99.90
19007;DHT22;9636;47.382;8.480;2024-01-07T14:47:17;4.40;99.90
19007;DHT22;9636;47.382;8.480;2024-01-07T14:49:44;4.20;99.90
19007;DHT22;9636;47.382;8.480;2024-01-07T14:52:10;4.40;99.90
19007;DHT22;9636;47.382;8.480;2024-01-07T14:54:37;4.50;99.90
19007;DHT22;9636;47.382;8.480;2024-01-07T14:57:05;4.30;99.90
19007;DHT22;9636;47.382;8.480;2024-01-07T14:59:33;4.20;99.90
19007;DHT22;9636;47.382;8.480;2024-01-07T15:02:01;4.20;99.90
19007;DHT22;9636;47.382;8.480;2024-01-07T15:04:27;4.10;99.90
19007;DHT22;9636;47.382;8.480;2024-01-07T15:06:54;4.20;99.90
19007;DHT22;9636;47.382;8.480;2024-01-07T15:09:21;4.20;99.90
19007;DHT22;9636;47.382;8.480;2024-01-07T15:11:48;4.20;99.90
19007;DHT22;9636;47.382;8.480;2024-01-07T15:14:17;4.20;99.90
19007;DHT22;9636;47.382;8.480;2024-01-07T15:16:43;4.20;99.90
19007;DHT22;9636;47.382;8.480;2024-01-07T15:19:11;4.40;99.90
19007;DHT22;9636;47.382;8.480;2024-01-07T15:21:37;4.50;99.90
19007;DHT22;9636;47.382;8.480;2024-01-07T15:24:04;4.40;99.90
19007;DHT22;9636;47.382;8.480;2024-01-07T15:26:31;4.30;99.90
19007;DHT22;9636;47.382;8.480;2024-01-07T15:29:00;4.20;99.90
19007;DHT22;9636;47.382;8.480;2024-01-07T15:31:28;4.40;99.90
19007;DHT22;9636;47.382;8.480;2024-01-07T15:33:55;4.50;99.90
19007;DHT22;9636;47.382;8.480;2024-01-07T15:36:21;4.30;99.90
19007;DHT22;9636;47.382;8.480;2024-01-07T15:38:48;4.20;99.90
19007;DHT22;9636;47.382;8.480;2024-01-07T15:41:15;4.20;99.90
19007;DHT22;9636;47.382;8.480;2024-01-07T15:43:41;4.30;99.90
19007;DHT22;9636;47.382;8.480;2024-01-07T15:46:08;4.10;99.90
19007;DHT22;9636;47.382;8.480;2024-01-07T15:48:37;4.10;99.90
19007;DHT22;9636;47.382;8.480;2024-01-07T15:51:04;4.10;99.90
19007;DHT22;9636;47.382;8.480;2024-01-07T15:53:31;4.10;99.90
19007;DHT22;9636;47.382;8.480;2024-01-07T15:55:59;4.10;99.90
19007;DHT22;9636;47.382;8.480;2024-01-07T15:58:27;4.00;99.90
19007;DHT22;9636;47.382;8.480;2024-01-07T16:00:56;3.90;99.90
19007;DHT22;9636;47.382;8.480;2024-01-07T16:03:23;3.90;99.90
19007;DHT22;9636;47.382;8.480;2024-01-07T16:05:51;3.80;99.90
19007;DHT22;9636;47.382;8.480;2024-01-07T16:08:18;3.70;99.90